sensor_id;sensor_type;location;lat;lon;timestamp;P1;durP1;ratioP1;P2;durP2;ratioP2
3587;SDS011;1808;53.596;9.972;2023-04-15T00:02:13;11.85;;;6.40;;
3587;SDS011;1808;53.596;9.972;2023-04-15T00:04:39;9.52;;;5.15;;
3587;SDS011;1808;53.596;9.972;2023-04-15T00:07:05;12.60;;;5.85;;
3587;SDS011;1808;53.596;9.972;2023-04-15T00:09:32;11.65;;;6.18;;
3587;SDS011;1808;53.596;9.972;2023-04-15T00:11:58;11.30;;;6.22;;
3587;SDS011;1808;53.596;9.972;2023-04-15T00:14:25;11.93;;;5.68;;
3587;SDS011;1808;53.596;9.972;2023-04-15T00:16:53;9.55;;;4.95;;
3587;SDS011;1808;53.596;9.972;2023-04-15T00:19:21;10.15;;;6.43;;
3587;SDS011;1808;53.596;9.972;2023-04-15T00:21:47;9.20;;;5.15;;
3587;SDS011;1808;53.596;9.972;2023-04-15T00:24:13;11.05;;;5.50;;
3587;SDS011;1808;53.596;9.972;2023-04-15T00:26:39;10.52;;;5.32;;
3587;SDS011;1808;53.596;9.972;2023-04-15T00:29:05;12.13;;;6.50;;
3587;SDS011;1808;53.596;9.972;2023-04-15T00:31:32;10.70;;;5.63;;
3587;SDS011;1808;53.596;9.972;2023-04-15T00:33:59;11.02;;;5.57;;
3587;SDS011;1808;53.596;9.972;2023-04-15T00:36:26;10.65;;;5.95;;
3587;SDS011;1808;53.596;9.972;2023-04-15T00:38:52;9.65;;;5.07;;
3587;SDS011;1808;53.596;9.972;2023-04-15T00:41:19;11.38;;;5.35;;
3587;SDS011;1808;53.596;9.972;2023-04-15T00:43:46;9.63;;;5.20;;
3587;SDS011;1808;53.596;9.972;2023-04-15T00:46:13;9.80;;;4.97;;
3587;SDS011;1808;53.596;9.972;2023-04-15T00:48:40;11.60;;;6.50;;
3587;SDS011;1808;53.596;9.972;2023-04-15T00:51:08;10.50;;;5.68;;
3587;SDS011;1808;53.596;9.972;2023-04-15T00:53:34;13.63;;;6.95;;
3587;SDS011;1808;53.596;9.972;2023-04-15T00:56:01;12.00;;;5.82;;
3587;SDS011;1808;53.596;9.972;2023-04-15T00:58:27;10.52;;;5.50;;
3587;SDS011;1808;53.596;9.972;2023-04-15T01:00:54;11.98;;;5.50;;
3587;SDS011;1808;53.596;9.972;2023-04-15T01:03:21;12.75;;;6.20;;
3587;SDS011;1808;53.596;9.972;2023-04-15T01:05:47;10.23;;;5.97;;
3587;SDS011;1808;53.596;9.972;2023-04-15T01:08:15;10.90;;;6.32;;
3587;SDS011;1808;53.596;9.972;2023-04-15T01:10:41;13.60;;;7.13;;
3587;SDS011;1808;53.596;9.972;2023-04-15T01:13:07;11.95;;;6.63;;
3587;SDS011;1808;53.596;9.972;2023-04-15T01:15:34;12.38;;;7.20;;
3587;SDS011;1808;53.596;9.972;2023-04-15T01:18:00;16.02;;;7.22;;
3587;SDS011;1808;53.596;9.972;2023-04-15T01:20:27;13.88;;;7.07;;
3587;SDS011;1808;53.596;9.972;2023-04-15T01:22:54;14.23;;;7.97;;
3587;SDS011;1808;53.596;9.972;2023-04-15T01:25:25;14.90;;;8.35;;
3587;SDS011;1808;53.596;9.972;2023-04-15T01:27:52;13.40;;;6.85;;
3587;SDS011;1808;53.596;9.972;2023-04-15T01:30:18;16.08;;;8.38;;
3587;SDS011;1808;53.596;9.972;2023-04-15T01:32:44;16.83;;;8.48;;
3587;SDS011;1808;53.596;9.972;2023-04-15T01:35:11;14.73;;;7.53;;
3587;SDS011;1808;53.596;9.972;2023-04-15T01:37:37;17.30;;;9.05;;
3587;SDS011;1808;53.596;9.972;2023-04-15T01:40:04;18.65;;;8.68;;
3587;SDS011;1808;53.596;9.972;2023-04-15T01:42:33;16.75;;;8.55;;
3587;SDS011;1808;53.596;9.972;2023-04-15T01:45:00;19.45;;;9.70;;
3587;SDS011;1808;53.596;9.972;2023-04-15T01:47:26;17.30;;;9.05;;
3587;SDS011;1808;53.596;9.972;2023-04-15T01:49:53;19.65;;;9.15;;
3587;SDS011;1808;53.596;9.972;2023-04-15T01:52:19;19.92;;;8.02;;
3587;SDS011;1808;53.596;9.972;2023-04-15T01:54:45;18.58;;;9.68;;
3587;SDS011;1808;53.596;9.972;2023-04-15T01:57:11;18.30;;;9.88;;
3587;SDS011;1808;53.596;9.972;2023-04-15T01:59:39;18.15;;;8.68;;
3587;SDS011;1808;53.596;9.972;2023-04-15T02:02:06;17.63;;;8.55;;
3587;SDS011;1808;53.596;9.972;2023-04-15T02:04:32;19.73;;;9.52;;
3587;SDS011;1808;53.596;9.972;2023-04-15T02:06:58;18.40;;;8.75;;
3587;SDS011;1808;53.596;9.972;2023-04-15T02:09:24;20.60;;;9.32;;
3587;SDS011;1808;53.596;9.972;2023-04-15T02:11:51;17.48;;;7.82;;
3587;SDS011;1808;53.596;9.972;2023-04-15T02:14:17;22.85;;;11.00;;
3587;SDS011;1808;53.596;9.972;2023-04-15T02:16:45;20.98;;;8.80;;
3587;SDS011;1808;53.596;9.972;2023-04-15T02:19:11;19.25;;;8.30;;
3587;SDS011;1808;53.596;9.972;2023-04-15T02:21:37;17.15;;;7.07;;
3587;SDS011;1808;53.596;9.972;2023-04-15T02:24:04;20.88;;;8.90;;
3587;SDS011;1808;53.596;9.972;2023-04-15T02:26:30;20.13;;;8.98;;
3587;SDS011;1808;53.596;9.972;2023-04-15T02:28:57;22.33;;;10.70;;
3587;SDS011;1808;53.596;9.972;2023-04-15T02:31:23;22.67;;;9.50;;
3587;SDS011;1808;53.596;9.972;2023-04-15T02:33:51;21.55;;;9.63;;
3587;SDS011;1808;53.596;9.972;2023-04-15T02:36:17;23.27;;;10.45;;
3587;SDS011;1808;53.596;9.972;2023-04-15T02:38:45;22.25;;;9.90;;
3587;SDS011;1808;53.596;9.972;2023-04-15T02:41:11;26.10;;;10.07;;
3587;SDS011;1808;53.596;9.972;2023-04-15T02:43:37;22.42;;;10.90;;
3587;SDS011;1808;53.596;9.972;2023-04-15T02:46:04;24.75;;;11.00;;
3587;SDS011;1808;53.596;9.972;2023-04-15T02:48:30;23.75;;;10.20;;
3587;SDS011;1808;53.596;9.972;2023-04-15T02:51:11;24.92;;;9.82;;
3587;SDS011;1808;53.596;9.972;2023-04-15T02:53:37;27.70;;;13.30;;
3587;SDS011;1808;53.596;9.972;2023-04-15T02:56:03;20.60;;;10.05;;
3587;SDS011;1808;53.596;9.972;2023-04-15T02:58:30;25.58;;;10.98;;
3587;SDS011;1808;53.596;9.972;2023-04-15T03:00:56;26.20;;;11.73;;
3587;SDS011;1808;53.596;9.972;2023-04-15T03:03:22;24.25;;;10.18;;
3587;SDS011;1808;53.596;9.972;2023-04-15T03:05:49;26.48;;;10.68;;
3587;SDS011;1808;53.596;9.972;2023-04-15T03:08:16;28.92;;;11.77;;
3587;SDS011;1808;53.596;9.972;2023-04-15T03:10:43;28.38;;;12.32;;
3587;SDS011;1808;53.596;9.972;2023-04-15T03:13:09;25.20;;;11.52;;
3587;SDS011;1808;53.596;9.972;2023-04-15T03:15:35;31.33;;;12.73;;
3587;SDS011;1808;53.596;9.972;2023-04-15T03:18:01;27.92;;;12.38;;
3587;SDS011;1808;53.596;9.972;2023-04-15T03:20:27;27.15;;;11.57;;
3587;SDS011;1808;53.596;9.972;2023-04-15T03:22:53;33.90;;;13.13;;
3587;SDS011;1808;53.596;9.972;2023-04-15T03:25:21;29.77;;;12.38;;
3587;SDS011;1808;53.596;9.972;2023-04-15T03:27:47;27.80;;;11.65;;
3587;SDS011;1808;53.596;9.972;2023-04-15T03:30:13;31.35;;;15.00;;
3587;SDS011;1808;53.596;9.972;2023-04-15T03:32:40;30.77;;;12.68;;
3587;SDS011;1808;53.596;9.972;2023-04-15T03:35:06;27.15;;;11.15;;
3587;SDS011;1808;53.596;9.972;2023-04-15T03:37:33;29.25;;;13.05;;
3587;SDS011;1808;53.596;9.972;2023-04-15T03:39:59;29.48;;;13.00;;
3587;SDS011;1808;53.596;9.972;2023-04-15T03:42:27;35.03;;;13.90;;
3587;SDS011;1808;53.596;9.972;2023-04-15T03:44:53;31.67;;;13.95;;
3587;SDS011;1808;53.596;9.972;2023-04-15T03:47:19;35.95;;;13.55;;
3587;SDS011;1808;53.596;9.972;2023-04-15T03:49:46;32.47;;;13.65;;
3587;SDS011;1808;53.596;9.972;2023-04-15T03:52:12;34.72;;;13.13;;
3587;SDS011;1808;53.596;9.972;2023-04-15T03:54:38;35.80;;;15.13;;
3587;SDS011;1808;53.596;9.972;2023-04-15T03:57:04;37.47;;;14.05;;
3587;SDS011;1808;53.596;9.972;2023-04-15T03:59:32;38.60;;;16.98;;
3587;SDS011;1808;53.596;9.972;2023-04-15T04:01:58;41.20;;;15.30;;
3587;SDS011;1808;53.596;9.972;2023-04-15T04:04:24;40.00;;;14.60;;
3587;SDS011;1808;53.596;9.972;2023-04-15T04:06:50;46.65;;;16.33;;
3587;SDS011;1808;53.596;9.972;2023-04-15T04:09:16;49.80;;;17.85;;
3587;SDS011;1808;53.596;9.972;2023-04-15T04:11:42;49.60;;;18.02;;
3587;SDS011;1808;53.596;9.972;2023-04-15T04:14:09;44.13;;;15.80;;
3587;SDS011;1808;53.596;9.972;2023-04-15T04:16:37;51.05;;;18.35;;
3587;SDS011;1808;53.596;9.972;2023-04-15T04:19:03;56.47;;;18.88;;
3587;SDS011;1808;53.596;9.972;2023-04-15T04:21:29;48.85;;;17.55;;
3587;SDS011;1808;53.596;9.972;2023-04-15T04:23:58;47.03;;;16.73;;
3587;SDS011;1808;53.596;9.972;2023-04-15T04:26:24;51.70;;;19.88;;
3587;SDS011;1808;53.596;9.972;2023-04-15T04:28:51;58.88;;;22.48;;
3587;SDS011;1808;53.596;9.972;2023-04-15T04:31:17;47.72;;;17.52;;
3587;SDS011;1808;53.596;9.972;2023-04-15T04:33:45;54.58;;;18.38;;
3587;SDS011;1808;53.596;9.972;2023-04-15T04:36:11;59.67;;;21.08;;
3587;SDS011;1808;53.596;9.972;2023-04-15T04:38:37;50.00;;;18.08;;
3587;SDS011;1808;53.596;9.972;2023-04-15T04:41:03;66.18;;;20.27;;
3587;SDS011;1808;53.596;9.972;2023-04-15T04:43:30;57.53;;;20.42;;
3587;SDS011;1808;53.596;9.972;2023-04-15T04:45:56;58.25;;;20.75;;
3587;SDS011;1808;53.596;9.972;2023-04-15T04:48:22;62.35;;;20.20;;
3587;SDS011;1808;53.596;9.972;2023-04-15T04:50:50;59.47;;;20.90;;
3587;SDS011;1808;53.596;9.972;2023-04-15T04:53:16;57.28;;;19.98;;
3587;SDS011;1808;53.596;9.972;2023-04-15T04:55:42;60.03;;;21.83;;
3587;SDS011;1808;53.596;9.972;2023-04-15T04:58:08;68.38;;;24.33;;
3587;SDS011;1808;53.596;9.972;2023-04-15T05:00:34;62.45;;;22.88;;
3587;SDS011;1808;53.596;9.972;2023-04-15T05:03:01;75.68;;;26.75;;
3587;SDS011;1808;53.596;9.972;2023-04-15T05:05:28;66.15;;;23.35;;
3587;SDS011;1808;53.596;9.972;2023-04-15T05:07:55;71.80;;;23.98;;
3587;SDS011;1808;53.596;9.972;2023-04-15T05:10:21;68.35;;;24.15;;
3587;SDS011;1808;53.596;9.972;2023-04-15T05:12:48;72.95;;;25.58;;
3587;SDS011;1808;53.596;9.972;2023-04-15T05:15:14;68.38;;;22.90;;
3587;SDS011;1808;53.596;9.972;2023-04-15T05:17:40;63.72;;;22.58;;
3587;SDS011;1808;53.596;9.972;2023-04-15T05:20:07;72.13;;;25.40;;
3587;SDS011;1808;53.596;9.972;2023-04-15T05:22:33;74.30;;;26.27;;
3587;SDS011;1808;53.596;9.972;2023-04-15T05:25:01;82.57;;;30.63;;
3587;SDS011;1808;53.596;9.972;2023-04-15T05:27:27;64.07;;;22.75;;
3587;SDS011;1808;53.596;9.972;2023-04-15T05:29:53;77.68;;;27.83;;
3587;SDS011;1808;53.596;9.972;2023-04-15T05:32:20;76.88;;;25.85;;
3587;SDS011;1808;53.596;9.972;2023-04-15T05:34:46;73.00;;;25.13;;
3587;SDS011;1808;53.596;9.972;2023-04-15T05:37:13;73.95;;;26.13;;
3587;SDS011;1808;53.596;9.972;2023-04-15T05:39:39;68.05;;;24.27;;
3587;SDS011;1808;53.596;9.972;2023-04-15T05:42:07;74.55;;;26.65;;
3587;SDS011;1808;53.596;9.972;2023-04-15T05:44:33;64.82;;;24.98;;
3587;SDS011;1808;53.596;9.972;2023-04-15T05:47:00;71.15;;;25.38;;
3587;SDS011;1808;53.596;9.972;2023-04-15T05:49:27;39.95;;;20.02;;
3587;SDS011;1808;53.596;9.972;2023-04-15T05:51:53;68.05;;;24.77;;
3587;SDS011;1808;53.596;9.972;2023-04-15T05:54:20;73.40;;;29.30;;
3587;SDS011;1808;53.596;9.972;2023-04-15T05:56:47;81.55;;;27.50;;
3587;SDS011;1808;53.596;9.972;2023-04-15T05:59:14;70.93;;;24.00;;
3587;SDS011;1808;53.596;9.972;2023-04-15T06:01:41;72.82;;;27.95;;
3587;SDS011;1808;53.596;9.972;2023-04-15T06:04:07;69.88;;;27.88;;
3587;SDS011;1808;53.596;9.972;2023-04-15T06:06:33;69.47;;;31.30;;
3587;SDS011;1808;53.596;9.972;2023-04-15T06:08:59;58.13;;;24.88;;
3587;SDS011;1808;53.596;9.972;2023-04-15T06:11:26;66.35;;;26.45;;
3587;SDS011;1808;53.596;9.972;2023-04-15T06:13:52;76.78;;;29.20;;
3587;SDS011;1808;53.596;9.972;2023-04-15T06:16:19;67.35;;;27.85;;
3587;SDS011;1808;53.596;9.972;2023-04-15T06:18:46;66.78;;;29.45;;
3587;SDS011;1808;53.596;9.972;2023-04-15T06:21:13;68.55;;;27.30;;
3587;SDS011;1808;53.596;9.972;2023-04-15T06:23:39;62.90;;;25.85;;
3587;SDS011;1808;53.596;9.972;2023-04-15T06:26:05;79.30;;;34.35;;
3587;SDS011;1808;53.596;9.972;2023-04-15T06:28:32;70.63;;;28.63;;
3587;SDS011;1808;53.596;9.972;2023-04-15T06:30:58;73.55;;;27.45;;
3587;SDS011;1808;53.596;9.972;2023-04-15T06:33:26;85.38;;;33.85;;
3587;SDS011;1808;53.596;9.972;2023-04-15T06:35:53;66.82;;;26.42;;
3587;SDS011;1808;53.596;9.972;2023-04-15T06:38:19;68.60;;;26.98;;
3587;SDS011;1808;53.596;9.972;2023-04-15T06:40:45;84.90;;;34.00;;
3587;SDS011;1808;53.596;9.972;2023-04-15T06:43:11;82.60;;;31.20;;
3587;SDS011;1808;53.596;9.972;2023-04-15T06:45:37;84.60;;;33.30;;
3587;SDS011;1808;53.596;9.972;2023-04-15T06:48:04;75.97;;;29.42;;
3587;SDS011;1808;53.596;9.972;2023-04-15T06:50:31;81.82;;;38.75;;
3587;SDS011;1808;53.596;9.972;2023-04-15T06:52:59;75.45;;;33.17;;
3587;SDS011;1808;53.596;9.972;2023-04-15T06:55:26;80.38;;;35.35;;
3587;SDS011;1808;53.596;9.972;2023-04-15T06:57:52;73.07;;;29.23;;
3587;SDS011;1808;53.596;9.972;2023-04-15T07:00:18;85.10;;;37.38;;
3587;SDS011;1808;53.596;9.972;2023-04-15T07:02:45;73.70;;;31.67;;
3587;SDS011;1808;53.596;9.972;2023-04-15T07:05:14;77.63;;;32.33;;
3587;SDS011;1808;53.596;9.972;2023-04-15T07:07:41;82.03;;;33.58;;
3587;SDS011;1808;53.596;9.972;2023-04-15T07:10:08;77.82;;;35.97;;
3587;SDS011;1808;53.596;9.972;2023-04-15T07:12:35;85.78;;;36.85;;
3587;SDS011;1808;53.596;9.972;2023-04-15T07:15:02;83.55;;;36.67;;
3587;SDS011;1808;53.596;9.972;2023-04-15T07:17:28;73.85;;;32.35;;
3587;SDS011;1808;53.596;9.972;2023-04-15T07:19:55;87.53;;;37.58;;
3587;SDS011;1808;53.596;9.972;2023-04-15T07:22:21;78.25;;;33.83;;
3587;SDS011;1808;53.596;9.972;2023-04-15T07:24:48;77.72;;;33.35;;
3587;SDS011;1808;53.596;9.972;2023-04-15T07:27:15;75.47;;;34.10;;
3587;SDS011;1808;53.596;9.972;2023-04-15T07:29:41;85.63;;;35.05;;
3587;SDS011;1808;53.596;9.972;2023-04-15T07:32:08;75.68;;;32.28;;
3587;SDS011;1808;53.596;9.972;2023-04-15T07:34:34;78.82;;;34.97;;
3587;SDS011;1808;53.596;9.972;2023-04-15T07:37:01;71.57;;;35.60;;
3587;SDS011;1808;53.596;9.972;2023-04-15T07:39:27;78.80;;;38.00;;
3587;SDS011;1808;53.596;9.972;2023-04-15T07:41:55;83.03;;;40.08;;
3587;SDS011;1808;53.596;9.972;2023-04-15T07:44:23;75.72;;;32.00;;
3587;SDS011;1808;53.596;9.972;2023-04-15T07:46:49;74.30;;;32.38;;
3587;SDS011;1808;53.596;9.972;2023-04-15T07:49:15;77.80;;;30.60;;
3587;SDS011;1808;53.596;9.972;2023-04-15T07:51:43;79.22;;;42.03;;
3587;SDS011;1808;53.596;9.972;2023-04-15T07:54:09;69.88;;;32.58;;
3587;SDS011;1808;53.596;9.972;2023-04-15T07:56:36;78.57;;;34.55;;
3587;SDS011;1808;53.596;9.972;2023-04-15T07:59:03;72.97;;;33.20;;
3587;SDS011;1808;53.596;9.972;2023-04-15T08:01:30;79.63;;;31.90;;
3587;SDS011;1808;53.596;9.972;2023-04-15T08:03:56;84.18;;;40.72;;
3587;SDS011;1808;53.596;9.972;2023-04-15T08:06:23;76.53;;;35.50;;
3587;SDS011;1808;53.596;9.972;2023-04-15T08:08:49;74.93;;;35.83;;
3587;SDS011;1808;53.596;9.972;2023-04-15T08:11:15;73.57;;;33.20;;
3587;SDS011;1808;53.596;9.972;2023-04-15T08:13:42;69.82;;;30.95;;
3587;SDS011;1808;53.596;9.972;2023-04-15T08:16:14;75.45;;;35.25;;
3587;SDS011;1808;53.596;9.972;2023-04-15T08:18:41;72.30;;;33.72;;
3587;SDS011;1808;53.596;9.972;2023-04-15T08:21:07;73.35;;;37.97;;
3587;SDS011;1808;53.596;9.972;2023-04-15T08:23:34;71.97;;;31.27;;
3587;SDS011;1808;53.596;9.972;2023-04-15T08:26:00;69.40;;;31.77;;
3587;SDS011;1808;53.596;9.972;2023-04-15T08:28:26;65.63;;;30.38;;
3587;SDS011;1808;53.596;9.972;2023-04-15T08:30:52;64.35;;;28.88;;
3587;SDS011;1808;53.596;9.972;2023-04-15T08:33:20;61.15;;;28.80;;
3587;SDS011;1808;53.596;9.972;2023-04-15T08:35:47;65.35;;;37.75;;
3587;SDS011;1808;53.596;9.972;2023-04-15T08:38:13;69.50;;;35.10;;
3587;SDS011;1808;53.596;9.972;2023-04-15T08:40:40;67.28;;;33.38;;
3587;SDS011;1808;53.596;9.972;2023-04-15T08:43:07;63.75;;;33.42;;
3587;SDS011;1808;53.596;9.972;2023-04-15T08:45:34;69.20;;;33.70;;
3587;SDS011;1808;53.596;9.972;2023-04-15T08:48:00;64.60;;;39.13;;
3587;SDS011;1808;53.596;9.972;2023-04-15T08:50:30;61.65;;;33.53;;
3587;SDS011;1808;53.596;9.972;2023-04-15T08:52:57;72.47;;;34.45;;
3587;SDS011;1808;53.596;9.972;2023-04-15T08:55:23;73.82;;;42.10;;
3587;SDS011;1808;53.596;9.972;2023-04-15T08:57:50;63.97;;;30.00;;
3587;SDS011;1808;53.596;9.972;2023-04-15T09:00:16;67.63;;;30.33;;
3587;SDS011;1808;53.596;9.972;2023-04-15T09:02:43;65.55;;;31.45;;
3587;SDS011;1808;53.596;9.972;2023-04-15T09:05:09;61.08;;;30.00;;
3587;SDS011;1808;53.596;9.972;2023-04-15T09:07:37;66.72;;;31.00;;
3587;SDS011;1808;53.596;9.972;2023-04-15T09:10:05;64.00;;;29.05;;
3587;SDS011;1808;53.596;9.972;2023-04-15T09:12:33;56.83;;;28.45;;
3587;SDS011;1808;53.596;9.972;2023-04-15T09:14:59;60.45;;;30.05;;
3587;SDS011;1808;53.596;9.972;2023-04-15T09:17:26;64.40;;;29.13;;
3587;SDS011;1808;53.596;9.972;2023-04-15T09:20:06;56.08;;;29.40;;
3587;SDS011;1808;53.596;9.972;2023-04-15T09:22:33;63.80;;;34.95;;
3587;SDS011;1808;53.596;9.972;2023-04-15T09:25:01;66.95;;;35.75;;
3587;SDS011;1808;53.596;9.972;2023-04-15T09:27:27;62.95;;;30.00;;
3587;SDS011;1808;53.596;9.972;2023-04-15T09:29:54;63.35;;;34.25;;
3587;SDS011;1808;53.596;9.972;2023-04-15T09:32:20;53.55;;;30.60;;
3587;SDS011;1808;53.596;9.972;2023-04-15T09:34:48;64.43;;;32.85;;
3587;SDS011;1808;53.596;9.972;2023-04-15T09:37:14;67.00;;;31.17;;
3587;SDS011;1808;53.596;9.972;2023-04-15T09:39:45;61.83;;;30.80;;
3587;SDS011;1808;53.596;9.972;2023-04-15T09:42:13;62.00;;;36.17;;
3587;SDS011;1808;53.596;9.972;2023-04-15T09:44:41;57.95;;;29.50;;
3587;SDS011;1808;53.596;9.972;2023-04-15T09:47:07;52.88;;;32.00;;
3587;SDS011;1808;53.596;9.972;2023-04-15T09:49:34;54.33;;;27.95;;
3587;SDS011;1808;53.596;9.972;2023-04-15T09:52:00;55.63;;;31.10;;
3587;SDS011;1808;53.596;9.972;2023-04-15T09:54:32;53.25;;;29.58;;
3587;SDS011;1808;53.596;9.972;2023-04-15T09:57:03;56.25;;;31.48;;
3587;SDS011;1808;53.596;9.972;2023-04-15T09:59:31;48.25;;;24.40;;
3587;SDS011;1808;53.596;9.972;2023-04-15T10:01:57;49.17;;;26.25;;
3587;SDS011;1808;53.596;9.972;2023-04-15T10:04:24;43.72;;;23.08;;
3587;SDS011;1808;53.596;9.972;2023-04-15T10:06:52;44.40;;;25.05;;
3587;SDS011;1808;53.596;9.972;2023-04-15T10:09:18;45.50;;;27.25;;
3587;SDS011;1808;53.596;9.972;2023-04-15T10:11:45;44.85;;;27.42;;
3587;SDS011;1808;53.596;9.972;2023-04-15T10:14:12;42.75;;;24.77;;
3587;SDS011;1808;53.596;9.972;2023-04-15T10:16:41;45.20;;;24.85;;
3587;SDS011;1808;53.596;9.972;2023-04-15T10:19:07;41.40;;;28.75;;
3587;SDS011;1808;53.596;9.972;2023-04-15T10:21:34;39.25;;;23.90;;
3587;SDS011;1808;53.596;9.972;2023-04-15T10:24:02;37.03;;;22.05;;
3587;SDS011;1808;53.596;9.972;2023-04-15T10:26:29;38.38;;;25.15;;
3587;SDS011;1808;53.596;9.972;2023-04-15T10:28:56;38.03;;;23.58;;
3587;SDS011;1808;53.596;9.972;2023-04-15T10:31:22;39.50;;;23.95;;
3587;SDS011;1808;53.596;9.972;2023-04-15T10:33:50;37.03;;;20.85;;
3587;SDS011;1808;53.596;9.972;2023-04-15T10:36:17;40.97;;;24.65;;
3587;SDS011;1808;53.596;9.972;2023-04-15T10:38:44;37.00;;;21.83;;
3587;SDS011;1808;53.596;9.972;2023-04-15T10:41:11;34.60;;;21.77;;
3587;SDS011;1808;53.596;9.972;2023-04-15T10:43:37;34.55;;;22.08;;
3587;SDS011;1808;53.596;9.972;2023-04-15T10:46:04;31.98;;;20.70;;
3587;SDS011;1808;53.596;9.972;2023-04-15T10:48:31;33.25;;;22.23;;
3587;SDS011;1808;53.596;9.972;2023-04-15T10:50:58;33.40;;;21.55;;
3587;SDS011;1808;53.596;9.972;2023-04-15T10:53:27;34.92;;;21.30;;
3587;SDS011;1808;53.596;9.972;2023-04-15T10:55:53;28.70;;;21.42;;
3587;SDS011;1808;53.596;9.972;2023-04-15T10:58:22;23.92;;;17.88;;
3587;SDS011;1808;53.596;9.972;2023-04-15T11:00:49;27.52;;;17.52;;
3587;SDS011;1808;53.596;9.972;2023-04-15T11:03:16;22.38;;;17.48;;
3587;SDS011;1808;53.596;9.972;2023-04-15T11:05:49;23.45;;;16.50;;
3587;SDS011;1808;53.596;9.972;2023-04-15T11:08:17;23.33;;;16.60;;
3587;SDS011;1808;53.596;9.972;2023-04-15T11:10:52;22.92;;;15.70;;
3587;SDS011;1808;53.596;9.972;2023-04-15T11:13:20;20.58;;;15.52;;
3587;SDS011;1808;53.596;9.972;2023-04-15T11:15:47;16.50;;;13.27;;
3587;SDS011;1808;53.596;9.972;2023-04-15T11:18:14;18.55;;;14.95;;
3587;SDS011;1808;53.596;9.972;2023-04-15T11:20:41;18.08;;;12.70;;
3587;SDS011;1808;53.596;9.972;2023-04-15T11:23:09;16.27;;;12.20;;
3587;SDS011;1808;53.596;9.972;2023-04-15T11:25:36;16.13;;;11.48;;
3587;SDS011;1808;53.596;9.972;2023-04-15T11:28:03;19.13;;;12.27;;
3587;SDS011;1808;53.596;9.972;2023-04-15T11:30:30;18.38;;;13.60;;
3587;SDS011;1808;53.596;9.972;2023-04-15T11:32:58;18.52;;;13.70;;
3587;SDS011;1808;53.596;9.972;2023-04-15T11:35:24;15.38;;;13.40;;
3587;SDS011;1808;53.596;9.972;2023-04-15T11:37:51;16.40;;;11.82;;
3587;SDS011;1808;53.596;9.972;2023-04-15T11:40:21;15.40;;;12.57;;
3587;SDS011;1808;53.596;9.972;2023-04-15T11:43:00;15.27;;;11.30;;
3587;SDS011;1808;53.596;9.972;2023-04-15T11:45:28;16.52;;;13.43;;
3587;SDS011;1808;53.596;9.972;2023-04-15T11:47:57;18.00;;;13.55;;
3587;SDS011;1808;53.596;9.972;2023-04-15T11:50:29;14.80;;;12.30;;
3587;SDS011;1808;53.596;9.972;2023-04-15T11:52:56;14.18;;;12.48;;
3587;SDS011;1808;53.596;9.972;2023-04-15T11:55:23;16.52;;;12.05;;
3587;SDS011;1808;53.596;9.972;2023-04-15T11:57:49;14.38;;;12.93;;
3587;SDS011;1808;53.596;9.972;2023-04-15T12:00:18;15.05;;;12.27;;
3587;SDS011;1808;53.596;9.972;2023-04-15T12:02:45;16.60;;;13.00;;
3587;SDS011;1808;53.596;9.972;2023-04-15T12:05:11;15.20;;;11.07;;
3587;SDS011;1808;53.596;9.972;2023-04-15T12:07:56;16.33;;;11.00;;
3587;SDS011;1808;53.596;9.972;2023-04-15T12:10:23;15.20;;;12.85;;
3587;SDS011;1808;53.596;9.972;2023-04-15T12:12:51;17.08;;;14.15;;
3587;SDS011;1808;53.596;9.972;2023-04-15T12:15:20;18.92;;;13.73;;
3587;SDS011;1808;53.596;9.972;2023-04-15T12:17:46;16.27;;;12.88;;
3587;SDS011;1808;53.596;9.972;2023-04-15T12:20:12;18.02;;;15.55;;
3587;SDS011;1808;53.596;9.972;2023-04-15T12:22:39;17.40;;;15.57;;
3587;SDS011;1808;53.596;9.972;2023-04-15T12:25:06;17.02;;;13.88;;
3587;SDS011;1808;53.596;9.972;2023-04-15T12:27:32;14.68;;;12.80;;
3587;SDS011;1808;53.596;9.972;2023-04-15T12:30:02;16.27;;;13.80;;
3587;SDS011;1808;53.596;9.972;2023-04-15T12:32:33;14.35;;;10.70;;
3587;SDS011;1808;53.596;9.972;2023-04-15T12:35:00;15.27;;;13.02;;
3587;SDS011;1808;53.596;9.972;2023-04-15T12:37:26;14.48;;;10.90;;
3587;SDS011;1808;53.596;9.972;2023-04-15T12:39:53;17.88;;;13.10;;
3587;SDS011;1808;53.596;9.972;2023-04-15T12:42:19;16.40;;;11.48;;
3587;SDS011;1808;53.596;9.972;2023-04-15T12:44:46;14.88;;;11.77;;
3587;SDS011;1808;53.596;9.972;2023-04-15T12:47:13;15.15;;;12.93;;
3587;SDS011;1808;53.596;9.972;2023-04-15T12:49:41;15.70;;;12.43;;
3587;SDS011;1808;53.596;9.972;2023-04-15T12:52:07;20.17;;;12.98;;
3587;SDS011;1808;53.596;9.972;2023-04-15T12:54:33;14.15;;;10.50;;
3587;SDS011;1808;53.596;9.972;2023-04-15T12:57:00;16.58;;;12.85;;
3587;SDS011;1808;53.596;9.972;2023-04-15T12:59:27;14.73;;;12.75;;
3587;SDS011;1808;53.596;9.972;2023-04-15T13:01:53;16.65;;;11.13;;
3587;SDS011;1808;53.596;9.972;2023-04-15T13:04:20;19.00;;;14.18;;
3587;SDS011;1808;53.596;9.972;2023-04-15T13:06:48;19.95;;;12.98;;
3587;SDS011;1808;53.596;9.972;2023-04-15T13:09:14;18.17;;;13.45;;
3587;SDS011;1808;53.596;9.972;2023-04-15T13:11:40;25.17;;;16.13;;
3587;SDS011;1808;53.596;9.972;2023-04-15T13:14:07;16.40;;;11.60;;
3587;SDS011;1808;53.596;9.972;2023-04-15T13:16:35;15.77;;;12.55;;
3587;SDS011;1808;53.596;9.972;2023-04-15T13:19:02;15.07;;;11.13;;
3587;SDS011;1808;53.596;9.972;2023-04-15T13:21:28;16.98;;;13.05;;
3587;SDS011;1808;53.596;9.972;2023-04-15T13:23:57;13.73;;;11.73;;
3587;SDS011;1808;53.596;9.972;2023-04-15T13:26:24;13.50;;;10.27;;
3587;SDS011;1808;53.596;9.972;2023-04-15T13:28:50;14.85;;;11.50;;
3587;SDS011;1808;53.596;9.972;2023-04-15T13:31:17;13.25;;;11.07;;
3587;SDS011;1808;53.596;9.972;2023-04-15T13:33:43;16.20;;;11.75;;
3587;SDS011;1808;53.596;9.972;2023-04-15T13:36:10;13.70;;;11.00;;
3587;SDS011;1808;53.596;9.972;2023-04-15T13:38:36;16.80;;;11.68;;
3587;SDS011;1808;53.596;9.972;2023-04-15T13:41:04;15.38;;;10.93;;
3587;SDS011;1808;53.596;9.972;2023-04-15T13:43:30;13.82;;;10.85;;
3587;SDS011;1808;53.596;9.972;2023-04-15T13:45:57;13.35;;;11.30;;
3587;SDS011;1808;53.596;9.972;2023-04-15T13:48:24;16.08;;;10.45;;
3587;SDS011;1808;53.596;9.972;2023-04-15T13:50:50;13.13;;;10.43;;
3587;SDS011;1808;53.596;9.972;2023-04-15T13:53:16;13.55;;;12.05;;
3587;SDS011;1808;53.596;9.972;2023-04-15T13:55:42;14.88;;;10.90;;
3587;SDS011;1808;53.596;9.972;2023-04-15T13:58:10;16.13;;;9.65;;
3587;SDS011;1808;53.596;9.972;2023-04-15T14:00:37;13.60;;;9.68;;
3587;SDS011;1808;53.596;9.972;2023-04-15T14:03:04;19.20;;;11.18;;
3587;SDS011;1808;53.596;9.972;2023-04-15T14:05:31;12.73;;;10.60;;
3587;SDS011;1808;53.596;9.972;2023-04-15T14:07:58;11.02;;;8.55;;
3587;SDS011;1808;53.596;9.972;2023-04-15T14:10:24;12.75;;;9.50;;
3587;SDS011;1808;53.596;9.972;2023-04-15T14:12:50;13.15;;;10.00;;
3587;SDS011;1808;53.596;9.972;2023-04-15T14:15:18;12.68;;;9.07;;
3587;SDS011;1808;53.596;9.972;2023-04-15T14:17:44;12.90;;;10.10;;
3587;SDS011;1808;53.596;9.972;2023-04-15T14:20:11;13.55;;;10.43;;
3587;SDS011;1808;53.596;9.972;2023-04-15T14:22:37;12.57;;;9.30;;
3587;SDS011;1808;53.596;9.972;2023-04-15T14:25:04;13.20;;;11.57;;
3587;SDS011;1808;53.596;9.972;2023-04-15T14:27:30;13.60;;;9.73;;
3587;SDS011;1808;53.596;9.972;2023-04-15T14:29:57;13.85;;;11.40;;
3587;SDS011;1808;53.596;9.972;2023-04-15T14:32:25;14.23;;;11.05;;
3587;SDS011;1808;53.596;9.972;2023-04-15T14:34:51;12.02;;;9.70;;
3587;SDS011;1808;53.596;9.972;2023-04-15T14:37:18;14.40;;;10.48;;
3587;SDS011;1808;53.596;9.972;2023-04-15T14:39:45;14.82;;;10.13;;
3587;SDS011;1808;53.596;9.972;2023-04-15T14:42:11;13.65;;;9.95;;
3587;SDS011;1808;53.596;9.972;2023-04-15T14:44:37;11.73;;;9.18;;
3587;SDS011;1808;53.596;9.972;2023-04-15T14:47:04;13.80;;;9.57;;
3587;SDS011;1808;53.596;9.972;2023-04-15T14:49:32;11.48;;;9.40;;